To NAV CANADA Home Page Login to a new session Search on AWWS site Feedback and Comments Disclaimer Vers la page française équivalente Tips FAQ What's new on the site To the Forecasts and Observations / NOTAM section To "File a Flight Plan" website Publications and other links Update of the User's profile FIC Telephone Numbers My Weather Data Folder Route Weather Data Regional Weather Data Local Weather Data To the Forecasts and Observations / NOTAM section
Request Generated 01/21/2017 at 02:00:57 UTC . Weather information available at that time is displayed.

METAR/TAF

NORTH BATTLEFORD/SK    (show WxCam)

METAR CYQW 210100Z AUTO 32003KT 6SM BR SCT140 OVC160 M03/M03 A2936
RMK SLP971=
METAR CYQW 210000Z AUTO 31004KT 9SM OVC170 M02/M02 A2936 RMK SLP972=
METAR CYQW 202300Z AUTO 31005KT 9SM OVC160 M02/M02 A2935 RMK SLP968=

TAF CYQW 202342Z 2100/2112 31005KT P6SM OVC160
FM210300 26005KT P6SM SCT006 TEMPO 2103/2106 3/4SM BR OVC002
FM210600 28005KT 1/2SM FZFG VV002 TEMPO 2106/2112 2SM BR OVC005
RMK FCST BASED ON AUTO OBS. NXT FCST BY 210600Z=
Your time UTC time
Weather data provided by Environment Canada and NAV CANADA